sensor_id;sensor_type;location;lat;lon;timestamp;P1;durP1;ratioP1;P2;durP2;ratioP2
10537;SDS011;5317;49.048;8.468;2023-02-01T00:00:25;7.27;;;4.80;;
10537;SDS011;5317;49.048;8.468;2023-02-01T00:02:52;5.87;;;4.57;;
10537;SDS011;5317;49.048;8.468;2023-02-01T00:05:19;6.07;;;4.47;;
10537;SDS011;5317;49.048;8.468;2023-02-01T00:07:47;8.03;;;4.83;;
10537;SDS011;5317;49.048;8.468;2023-02-01T00:10:14;8.80;;;5.30;;
10537;SDS011;5317;49.048;8.468;2023-02-01T00:12:41;5.97;;;4.87;;
10537;SDS011;5317;49.048;8.468;2023-02-01T00:15:09;6.87;;;5.07;;
10537;SDS011;5317;49.048;8.468;2023-02-01T00:17:36;6.73;;;4.77;;
10537;SDS011;5317;49.048;8.468;2023-02-01T00:20:04;6.47;;;4.90;;
10537;SDS011;5317;49.048;8.468;2023-02-01T00:22:31;6.47;;;4.83;;
10537;SDS011;5317;49.048;8.468;2023-02-01T00:24:58;6.97;;;6.10;;
10537;SDS011;5317;49.048;8.468;2023-02-01T00:27:25;7.50;;;5.77;;
10537;SDS011;5317;49.048;8.468;2023-02-01T00:29:55;12.00;;;5.03;;
10537;SDS011;5317;49.048;8.468;2023-02-01T00:32:26;8.53;;;4.53;;
10537;SDS011;5317;49.048;8.468;2023-02-01T00:34:53;4.97;;;4.47;;
10537;SDS011;5317;49.048;8.468;2023-02-01T00:37:25;8.13;;;4.57;;
10537;SDS011;5317;49.048;8.468;2023-02-01T00:39:52;6.77;;;4.83;;
10537;SDS011;5317;49.048;8.468;2023-02-01T00:42:20;4.97;;;4.07;;
10537;SDS011;5317;49.048;8.468;2023-02-01T00:44:47;6.13;;;4.23;;
10537;SDS011;5317;49.048;8.468;2023-02-01T00:47:14;5.97;;;4.67;;
10537;SDS011;5317;49.048;8.468;2023-02-01T00:49:42;5.47;;;3.90;;
10537;SDS011;5317;49.048;8.468;2023-02-01T00:52:09;5.83;;;4.27;;
10537;SDS011;5317;49.048;8.468;2023-02-01T00:54:36;5.77;;;4.50;;
10537;SDS011;5317;49.048;8.468;2023-02-01T00:57:03;5.33;;;4.00;;
10537;SDS011;5317;49.048;8.468;2023-02-01T00:59:31;7.23;;;5.03;;
10537;SDS011;5317;49.048;8.468;2023-02-01T01:01:58;5.73;;;3.97;;
10537;SDS011;5317;49.048;8.468;2023-02-01T01:04:24;4.80;;;4.20;;
10537;SDS011;5317;49.048;8.468;2023-02-01T01:06:53;4.73;;;4.00;;
10537;SDS011;5317;49.048;8.468;2023-02-01T01:09:19;5.07;;;3.87;;
10537;SDS011;5317;49.048;8.468;2023-02-01T01:11:46;5.73;;;3.97;;
10537;SDS011;5317;49.048;8.468;2023-02-01T01:14:50;4.63;;;3.93;;
10537;SDS011;5317;49.048;8.468;2023-02-01T01:17:20;4.13;;;3.47;;
10537;SDS011;5317;49.048;8.468;2023-02-01T01:19:47;5.00;;;3.50;;
10537;SDS011;5317;49.048;8.468;2023-02-01T01:22:15;5.63;;;4.00;;
10537;SDS011;5317;49.048;8.468;2023-02-01T01:24:42;7.60;;;5.43;;
10537;SDS011;5317;49.048;8.468;2023-02-01T01:27:09;5.00;;;3.77;;
10537;SDS011;5317;49.048;8.468;2023-02-01T01:29:36;5.83;;;3.30;;
10537;SDS011;5317;49.048;8.468;2023-02-01T01:32:06;3.83;;;3.17;;
10537;SDS011;5317;49.048;8.468;2023-02-01T01:34:33;4.10;;;3.40;;
10537;SDS011;5317;49.048;8.468;2023-02-01T01:36:59;5.27;;;4.27;;
10537;SDS011;5317;49.048;8.468;2023-02-01T01:39:28;3.63;;;3.10;;
10537;SDS011;5317;49.048;8.468;2023-02-01T01:41:55;3.93;;;3.40;;
10537;SDS011;5317;49.048;8.468;2023-02-01T01:47:26;5.13;;;3.30;;
10537;SDS011;5317;49.048;8.468;2023-02-01T01:49:55;4.23;;;3.33;;
10537;SDS011;5317;49.048;8.468;2023-02-01T01:52:22;4.20;;;3.20;;
10537;SDS011;5317;49.048;8.468;2023-02-01T01:54:51;4.37;;;3.50;;
10537;SDS011;5317;49.048;8.468;2023-02-01T01:57:20;6.33;;;3.77;;
10537;SDS011;5317;49.048;8.468;2023-02-01T01:59:53;4.80;;;3.43;;
10537;SDS011;5317;49.048;8.468;2023-02-01T02:02:24;3.23;;;2.90;;
10537;SDS011;5317;49.048;8.468;2023-02-01T02:04:51;4.03;;;3.10;;
10537;SDS011;5317;49.048;8.468;2023-02-01T02:07:19;3.58;;;3.28;;
10537;SDS011;5317;49.048;8.468;2023-02-01T02:09:51;3.70;;;3.30;;
10537;SDS011;5317;49.048;8.468;2023-02-01T02:12:18;3.80;;;3.40;;
10537;SDS011;5317;49.048;8.468;2023-02-01T02:14:45;3.87;;;3.27;;
10537;SDS011;5317;49.048;8.468;2023-02-01T02:17:16;4.97;;;3.43;;
10537;SDS011;5317;49.048;8.468;2023-02-01T02:20:00;3.60;;;3.03;;
10537;SDS011;5317;49.048;8.468;2023-02-01T02:26:14;3.47;;;3.13;;
10537;SDS011;5317;49.048;8.468;2023-02-01T02:29:01;4.43;;;3.53;;
10537;SDS011;5317;49.048;8.468;2023-02-01T02:31:54;3.88;;;3.30;;
10537;SDS011;5317;49.048;8.468;2023-02-01T02:34:35;5.07;;;3.00;;
10537;SDS011;5317;49.048;8.468;2023-02-01T02:37:08;3.60;;;2.93;;
10537;SDS011;5317;49.048;8.468;2023-02-01T02:39:44;5.53;;;3.83;;
10537;SDS011;5317;49.048;8.468;2023-02-01T02:42:20;4.50;;;3.23;;
10537;SDS011;5317;49.048;8.468;2023-02-01T02:45:12;4.03;;;3.10;;
10537;SDS011;5317;49.048;8.468;2023-02-01T02:48:02;3.67;;;3.27;;
10537;SDS011;5317;49.048;8.468;2023-02-01T02:50:40;6.17;;;3.23;;
10537;SDS011;5317;49.048;8.468;2023-02-01T02:53:27;3.60;;;3.17;;
10537;SDS011;5317;49.048;8.468;2023-02-01T02:56:17;3.43;;;2.97;;
10537;SDS011;5317;49.048;8.468;2023-02-01T02:59:05;4.97;;;3.60;;
10537;SDS011;5317;49.048;8.468;2023-02-01T03:01:51;4.07;;;3.67;;
10537;SDS011;5317;49.048;8.468;2023-02-01T03:04:35;4.37;;;3.00;;
10537;SDS011;5317;49.048;8.468;2023-02-01T03:07:13;5.03;;;3.33;;
10537;SDS011;5317;49.048;8.468;2023-02-01T03:10:01;4.50;;;3.30;;
10537;SDS011;5317;49.048;8.468;2023-02-01T03:12:31;3.80;;;3.20;;
10537;SDS011;5317;49.048;8.468;2023-02-01T03:15:20;3.87;;;3.37;;
10537;SDS011;5317;49.048;8.468;2023-02-01T03:17:51;4.13;;;3.47;;
10537;SDS011;5317;49.048;8.468;2023-02-01T03:20:19;3.67;;;3.13;;
10537;SDS011;5317;49.048;8.468;2023-02-01T03:22:48;4.77;;;3.23;;
10537;SDS011;5317;49.048;8.468;2023-02-01T03:25:17;4.50;;;3.40;;
10537;SDS011;5317;49.048;8.468;2023-02-01T03:27:48;3.87;;;3.20;;
10537;SDS011;5317;49.048;8.468;2023-02-01T03:30:19;3.70;;;3.20;;
10537;SDS011;5317;49.048;8.468;2023-02-01T03:32:49;4.27;;;3.30;;
10537;SDS011;5317;49.048;8.468;2023-02-01T03:35:25;3.63;;;3.30;;
10537;SDS011;5317;49.048;8.468;2023-02-01T03:37:59;3.90;;;3.50;;
10537;SDS011;5317;49.048;8.468;2023-02-01T03:40:32;4.13;;;3.60;;
10537;SDS011;5317;49.048;8.468;2023-02-01T03:43:02;3.67;;;3.23;;
10537;SDS011;5317;49.048;8.468;2023-02-01T03:45:34;3.90;;;3.33;;
10537;SDS011;5317;49.048;8.468;2023-02-01T03:48:05;3.97;;;3.23;;
10537;SDS011;5317;49.048;8.468;2023-02-01T03:50:33;4.67;;;3.47;;
10537;SDS011;5317;49.048;8.468;2023-02-01T03:53:05;3.67;;;3.33;;
10537;SDS011;5317;49.048;8.468;2023-02-01T03:55:35;3.87;;;3.03;;
10537;SDS011;5317;49.048;8.468;2023-02-01T03:58:04;3.40;;;3.10;;
10537;SDS011;5317;49.048;8.468;2023-02-01T04:00:34;4.70;;;3.00;;
10537;SDS011;5317;49.048;8.468;2023-02-01T04:03:01;3.30;;;2.83;;
10537;SDS011;5317;49.048;8.468;2023-02-01T04:05:29;4.10;;;3.03;;
10537;SDS011;5317;49.048;8.468;2023-02-01T04:07:56;3.23;;;2.93;;
10537;SDS011;5317;49.048;8.468;2023-02-01T04:10:25;3.93;;;2.90;;
10537;SDS011;5317;49.048;8.468;2023-02-01T04:12:53;3.23;;;2.93;;
10537;SDS011;5317;49.048;8.468;2023-02-01T04:15:20;3.63;;;2.83;;
10537;SDS011;5317;49.048;8.468;2023-02-01T04:17:47;4.33;;;3.30;;
10537;SDS011;5317;49.048;8.468;2023-02-01T04:20:14;3.63;;;2.83;;
10537;SDS011;5317;49.048;8.468;2023-02-01T04:22:41;3.00;;;2.70;;
10537;SDS011;5317;49.048;8.468;2023-02-01T04:25:09;3.37;;;3.07;;
10537;SDS011;5317;49.048;8.468;2023-02-01T04:27:39;3.13;;;2.83;;
10537;SDS011;5317;49.048;8.468;2023-02-01T04:30:06;3.27;;;2.93;;
10537;SDS011;5317;49.048;8.468;2023-02-01T04:32:34;3.70;;;2.93;;
10537;SDS011;5317;49.048;8.468;2023-02-01T04:35:03;2.97;;;2.60;;
10537;SDS011;5317;49.048;8.468;2023-02-01T04:37:30;4.13;;;3.27;;
10537;SDS011;5317;49.048;8.468;2023-02-01T04:39:57;3.60;;;3.03;;
10537;SDS011;5317;49.048;8.468;2023-02-01T04:42:23;3.97;;;3.40;;
10537;SDS011;5317;49.048;8.468;2023-02-01T04:44:52;3.70;;;3.33;;
10537;SDS011;5317;49.048;8.468;2023-02-01T04:47:19;5.03;;;3.57;;
10537;SDS011;5317;49.048;8.468;2023-02-01T04:49:45;4.03;;;2.93;;
10537;SDS011;5317;49.048;8.468;2023-02-01T04:52:12;3.50;;;3.20;;
10537;SDS011;5317;49.048;8.468;2023-02-01T04:54:39;3.87;;;3.47;;
10537;SDS011;5317;49.048;8.468;2023-02-01T04:57:06;3.57;;;3.27;;
10537;SDS011;5317;49.048;8.468;2023-02-01T04:59:33;3.73;;;3.27;;
10537;SDS011;5317;49.048;8.468;2023-02-01T05:02:01;5.10;;;3.67;;
10537;SDS011;5317;49.048;8.468;2023-02-01T05:04:28;3.97;;;3.57;;
10537;SDS011;5317;49.048;8.468;2023-02-01T05:06:55;3.73;;;3.30;;
10537;SDS011;5317;49.048;8.468;2023-02-01T05:09:22;3.83;;;3.40;;
10537;SDS011;5317;49.048;8.468;2023-02-01T05:11:49;4.17;;;3.40;;
10537;SDS011;5317;49.048;8.468;2023-02-01T05:14:33;4.77;;;3.47;;
10537;SDS011;5317;49.048;8.468;2023-02-01T05:17:01;3.87;;;3.47;;
10537;SDS011;5317;49.048;8.468;2023-02-01T05:19:28;3.80;;;3.40;;
10537;SDS011;5317;49.048;8.468;2023-02-01T05:21:55;3.97;;;3.00;;
10537;SDS011;5317;49.048;8.468;2023-02-01T05:24:22;4.73;;;3.20;;
10537;SDS011;5317;49.048;8.468;2023-02-01T05:26:49;3.97;;;3.10;;
10537;SDS011;5317;49.048;8.468;2023-02-01T05:29:16;4.00;;;3.57;;
10537;SDS011;5317;49.048;8.468;2023-02-01T05:31:43;4.17;;;3.50;;
10537;SDS011;5317;49.048;8.468;2023-02-01T05:34:13;3.87;;;3.40;;
10537;SDS011;5317;49.048;8.468;2023-02-01T05:36:40;4.00;;;3.67;;
10537;SDS011;5317;49.048;8.468;2023-02-01T05:39:07;4.00;;;3.60;;
10537;SDS011;5317;49.048;8.468;2023-02-01T05:41:35;5.10;;;3.20;;
10537;SDS011;5317;49.048;8.468;2023-02-01T05:44:02;5.40;;;3.30;;
10537;SDS011;5317;49.048;8.468;2023-02-01T05:46:30;3.47;;;3.17;;
10537;SDS011;5317;49.048;8.468;2023-02-01T05:48:57;4.10;;;3.67;;
10537;SDS011;5317;49.048;8.468;2023-02-01T05:51:25;4.07;;;3.37;;
10537;SDS011;5317;49.048;8.468;2023-02-01T05:53:52;4.83;;;3.20;;
10537;SDS011;5317;49.048;8.468;2023-02-01T05:56:19;5.17;;;3.50;;
10537;SDS011;5317;49.048;8.468;2023-02-01T05:58:46;3.57;;;3.23;;
10537;SDS011;5317;49.048;8.468;2023-02-01T06:01:13;4.17;;;3.53;;
10537;SDS011;5317;49.048;8.468;2023-02-01T06:03:40;8.33;;;3.77;;
10537;SDS011;5317;49.048;8.468;2023-02-01T06:06:06;4.13;;;3.73;;
10537;SDS011;5317;49.048;8.468;2023-02-01T06:08:35;5.40;;;3.90;;
10537;SDS011;5317;49.048;8.468;2023-02-01T06:11:02;3.87;;;3.50;;
10537;SDS011;5317;49.048;8.468;2023-02-01T06:13:30;5.23;;;3.63;;
10537;SDS011;5317;49.048;8.468;2023-02-01T06:15:57;4.07;;;3.63;;
10537;SDS011;5317;49.048;8.468;2023-02-01T06:18:24;5.03;;;3.50;;
10537;SDS011;5317;49.048;8.468;2023-02-01T06:20:52;4.60;;;3.57;;
10537;SDS011;5317;49.048;8.468;2023-02-01T06:23:19;5.83;;;3.80;;
10537;SDS011;5317;49.048;8.468;2023-02-01T06:25:50;6.20;;;3.43;;
10537;SDS011;5317;49.048;8.468;2023-02-01T06:28:18;3.97;;;3.30;;
10537;SDS011;5317;49.048;8.468;2023-02-01T06:30:45;4.57;;;3.80;;
10537;SDS011;5317;49.048;8.468;2023-02-01T06:33:12;5.03;;;3.90;;
10537;SDS011;5317;49.048;8.468;2023-02-01T06:35:40;4.10;;;3.70;;
10537;SDS011;5317;49.048;8.468;2023-02-01T06:38:08;5.37;;;4.03;;
10537;SDS011;5317;49.048;8.468;2023-02-01T06:40:36;7.27;;;4.17;;
10537;SDS011;5317;49.048;8.468;2023-02-01T06:43:04;6.50;;;3.70;;
10537;SDS011;5317;49.048;8.468;2023-02-01T06:45:31;8.23;;;4.27;;
10537;SDS011;5317;49.048;8.468;2023-02-01T06:47:58;6.20;;;4.47;;
10537;SDS011;5317;49.048;8.468;2023-02-01T06:50:25;4.30;;;3.70;;
10537;SDS011;5317;49.048;8.468;2023-02-01T06:52:53;5.93;;;3.50;;
10537;SDS011;5317;49.048;8.468;2023-02-01T06:55:20;6.00;;;3.93;;
10537;SDS011;5317;49.048;8.468;2023-02-01T06:57:46;5.77;;;3.50;;
10537;SDS011;5317;49.048;8.468;2023-02-01T07:00:15;4.53;;;3.20;;
10537;SDS011;5317;49.048;8.468;2023-02-01T07:02:42;5.33;;;3.90;;
10537;SDS011;5317;49.048;8.468;2023-02-01T07:05:09;4.37;;;3.77;;
10537;SDS011;5317;49.048;8.468;2023-02-01T07:07:36;5.53;;;3.60;;
10537;SDS011;5317;49.048;8.468;2023-02-01T07:10:03;6.20;;;3.60;;
10537;SDS011;5317;49.048;8.468;2023-02-01T07:12:30;3.70;;;3.30;;
10537;SDS011;5317;49.048;8.468;2023-02-01T07:14:57;5.40;;;3.77;;
10537;SDS011;5317;49.048;8.468;2023-02-01T07:17:26;3.97;;;3.53;;
10537;SDS011;5317;49.048;8.468;2023-02-01T07:19:54;4.73;;;3.47;;
10537;SDS011;5317;49.048;8.468;2023-02-01T07:22:21;4.47;;;3.90;;
10537;SDS011;5317;49.048;8.468;2023-02-01T07:24:48;4.80;;;4.03;;
10537;SDS011;5317;49.048;8.468;2023-02-01T07:27:15;8.23;;;7.43;;
10537;SDS011;5317;49.048;8.468;2023-02-01T07:29:42;5.00;;;3.77;;
10537;SDS011;5317;49.048;8.468;2023-02-01T07:32:09;6.70;;;3.93;;
10537;SDS011;5317;49.048;8.468;2023-02-01T07:34:38;4.63;;;3.40;;
10537;SDS011;5317;49.048;8.468;2023-02-01T07:37:05;4.83;;;3.90;;
10537;SDS011;5317;49.048;8.468;2023-02-01T07:39:31;5.20;;;3.50;;
10537;SDS011;5317;49.048;8.468;2023-02-01T07:41:58;5.63;;;3.70;;
10537;SDS011;5317;49.048;8.468;2023-02-01T07:44:25;7.10;;;4.40;;
10537;SDS011;5317;49.048;8.468;2023-02-01T07:46:52;5.47;;;4.00;;
10537;SDS011;5317;49.048;8.468;2023-02-01T07:49:19;5.90;;;4.00;;
10537;SDS011;5317;49.048;8.468;2023-02-01T07:51:47;4.93;;;3.33;;
10537;SDS011;5317;49.048;8.468;2023-02-01T07:54:14;6.83;;;3.77;;
10537;SDS011;5317;49.048;8.468;2023-02-01T07:56:41;4.20;;;3.53;;
10537;SDS011;5317;49.048;8.468;2023-02-01T07:59:08;6.43;;;4.20;;
10537;SDS011;5317;49.048;8.468;2023-02-01T08:01:35;6.47;;;3.60;;
10537;SDS011;5317;49.048;8.468;2023-02-01T08:04:03;4.53;;;3.53;;
10537;SDS011;5317;49.048;8.468;2023-02-01T08:06:31;4.03;;;3.40;;
10537;SDS011;5317;49.048;8.468;2023-02-01T08:09:00;8.47;;;4.17;;
10537;SDS011;5317;49.048;8.468;2023-02-01T08:11:28;4.43;;;3.40;;
10537;SDS011;5317;49.048;8.468;2023-02-01T08:13:55;5.70;;;3.50;;
10537;SDS011;5317;49.048;8.468;2023-02-01T08:16:22;4.10;;;3.07;;
10537;SDS011;5317;49.048;8.468;2023-02-01T08:18:49;5.67;;;3.37;;
10537;SDS011;5317;49.048;8.468;2023-02-01T08:21:17;6.13;;;3.57;;
10537;SDS011;5317;49.048;8.468;2023-02-01T08:23:47;4.20;;;3.37;;
10537;SDS011;5317;49.048;8.468;2023-02-01T08:26:16;7.67;;;3.37;;
10537;SDS011;5317;49.048;8.468;2023-02-01T08:28:45;3.67;;;3.07;;
10537;SDS011;5317;49.048;8.468;2023-02-01T08:31:14;5.27;;;3.50;;
10537;SDS011;5317;49.048;8.468;2023-02-01T08:33:44;4.47;;;3.20;;
10537;SDS011;5317;49.048;8.468;2023-02-01T08:36:15;5.83;;;3.30;;
10537;SDS011;5317;49.048;8.468;2023-02-01T08:38:42;5.00;;;3.13;;
10537;SDS011;5317;49.048;8.468;2023-02-01T08:41:11;3.30;;;3.00;;
10537;SDS011;5317;49.048;8.468;2023-02-01T08:43:41;5.50;;;4.33;;
10537;SDS011;5317;49.048;8.468;2023-02-01T08:46:08;3.90;;;3.00;;
10537;SDS011;5317;49.048;8.468;2023-02-01T08:48:35;4.73;;;3.27;;
10537;SDS011;5317;49.048;8.468;2023-02-01T08:51:03;4.70;;;3.23;;
10537;SDS011;5317;49.048;8.468;2023-02-01T08:53:32;3.77;;;3.23;;
10537;SDS011;5317;49.048;8.468;2023-02-01T08:56:00;6.13;;;3.37;;
10537;SDS011;5317;49.048;8.468;2023-02-01T08:58:27;4.00;;;3.33;;
10537;SDS011;5317;49.048;8.468;2023-02-01T09:00:55;5.90;;;2.87;;
10537;SDS011;5317;49.048;8.468;2023-02-01T09:03:22;6.40;;;3.43;;
10537;SDS011;5317;49.048;8.468;2023-02-01T09:05:49;3.70;;;3.03;;
10537;SDS011;5317;49.048;8.468;2023-02-01T09:08:15;8.77;;;3.73;;
10537;SDS011;5317;49.048;8.468;2023-02-01T09:10:43;5.63;;;3.23;;
10537;SDS011;5317;49.048;8.468;2023-02-01T09:13:10;5.90;;;3.30;;
10537;SDS011;5317;49.048;8.468;2023-02-01T09:15:37;4.70;;;3.20;;
10537;SDS011;5317;49.048;8.468;2023-02-01T09:18:05;6.43;;;3.67;;
10537;SDS011;5317;49.048;8.468;2023-02-01T09:20:32;5.40;;;3.27;;
10537;SDS011;5317;49.048;8.468;2023-02-01T09:22:59;5.43;;;3.23;;
10537;SDS011;5317;49.048;8.468;2023-02-01T09:25:26;4.87;;;3.30;;
10537;SDS011;5317;49.048;8.468;2023-02-01T09:27:53;6.87;;;3.10;;
10537;SDS011;5317;49.048;8.468;2023-02-01T09:30:20;4.30;;;2.90;;
10537;SDS011;5317;49.048;8.468;2023-02-01T09:32:47;6.80;;;3.50;;
10537;SDS011;5317;49.048;8.468;2023-02-01T09:35:15;5.63;;;3.20;;
10537;SDS011;5317;49.048;8.468;2023-02-01T09:37:42;7.17;;;2.90;;
10537;SDS011;5317;49.048;8.468;2023-02-01T09:40:10;9.43;;;3.77;;
10537;SDS011;5317;49.048;8.468;2023-02-01T09:42:46;5.53;;;3.07;;
10537;SDS011;5317;49.048;8.468;2023-02-01T09:45:24;5.83;;;3.30;;
10537;SDS011;5317;49.048;8.468;2023-02-01T09:47:59;5.53;;;3.00;;
10537;SDS011;5317;49.048;8.468;2023-02-01T09:50:33;10.93;;;4.47;;
10537;SDS011;5317;49.048;8.468;2023-02-01T09:53:04;8.60;;;3.57;;
10537;SDS011;5317;49.048;8.468;2023-02-01T09:55:38;6.73;;;3.40;;
10537;SDS011;5317;49.048;8.468;2023-02-01T09:58:09;6.60;;;2.87;;
10537;SDS011;5317;49.048;8.468;2023-02-01T10:00:41;6.57;;;3.07;;
10537;SDS011;5317;49.048;8.468;2023-02-01T10:03:16;9.47;;;4.03;;
10537;SDS011;5317;49.048;8.468;2023-02-01T10:05:48;6.83;;;3.63;;
10537;SDS011;5317;49.048;8.468;2023-02-01T10:08:40;8.87;;;4.23;;
10537;SDS011;5317;49.048;8.468;2023-02-01T10:11:24;8.63;;;3.67;;
10537;SDS011;5317;49.048;8.468;2023-02-01T10:14:13;9.20;;;3.50;;
10537;SDS011;5317;49.048;8.468;2023-02-01T10:16:56;6.37;;;3.20;;
10537;SDS011;5317;49.048;8.468;2023-02-01T10:19:33;8.03;;;3.20;;
10537;SDS011;5317;49.048;8.468;2023-02-01T10:22:14;7.53;;;3.73;;
10537;SDS011;5317;49.048;8.468;2023-02-01T10:24:46;9.77;;;3.90;;
10537;SDS011;5317;49.048;8.468;2023-02-01T10:27:22;5.47;;;2.87;;
10537;SDS011;5317;49.048;8.468;2023-02-01T10:29:57;7.47;;;3.00;;
10537;SDS011;5317;49.048;8.468;2023-02-01T10:32:28;7.77;;;3.17;;
10537;SDS011;5317;49.048;8.468;2023-02-01T10:34:58;9.23;;;3.07;;
10537;SDS011;5317;49.048;8.468;2023-02-01T10:37:29;7.97;;;2.93;;
10537;SDS011;5317;49.048;8.468;2023-02-01T10:39:59;7.13;;;3.20;;
10537;SDS011;5317;49.048;8.468;2023-02-01T10:42:30;6.57;;;2.90;;
10537;SDS011;5317;49.048;8.468;2023-02-01T10:44:59;7.87;;;3.10;;
10537;SDS011;5317;49.048;8.468;2023-02-01T10:47:28;6.83;;;3.20;;
10537;SDS011;5317;49.048;8.468;2023-02-01T10:49:56;12.23;;;3.60;;
10537;SDS011;5317;49.048;8.468;2023-02-01T10:52:33;11.17;;;5.40;;
10537;SDS011;5317;49.048;8.468;2023-02-01T10:58:00;6.63;;;3.50;;
10537;SDS011;5317;49.048;8.468;2023-02-01T11:00:28;8.07;;;3.30;;
10537;SDS011;5317;49.048;8.468;2023-02-01T11:03:18;6.80;;;2.60;;
10537;SDS011;5317;49.048;8.468;2023-02-01T11:05:47;6.17;;;3.30;;
10537;SDS011;5317;49.048;8.468;2023-02-01T11:08:16;6.73;;;3.20;;
10537;SDS011;5317;49.048;8.468;2023-02-01T11:10:44;7.23;;;3.47;;
10537;SDS011;5317;49.048;8.468;2023-02-01T11:13:13;5.13;;;3.10;;
10537;SDS011;5317;49.048;8.468;2023-02-01T11:15:45;10.03;;;3.03;;
10537;SDS011;5317;49.048;8.468;2023-02-01T11:18:24;4.23;;;3.17;;
10537;SDS011;5317;49.048;8.468;2023-02-01T11:20:53;5.63;;;2.83;;
10537;SDS011;5317;49.048;8.468;2023-02-01T11:23:22;10.13;;;4.67;;
10537;SDS011;5317;49.048;8.468;2023-02-01T11:25:52;10.33;;;4.30;;
10537;SDS011;5317;49.048;8.468;2023-02-01T11:28:21;7.10;;;3.50;;
10537;SDS011;5317;49.048;8.468;2023-02-01T11:30:50;11.03;;;3.77;;
10537;SDS011;5317;49.048;8.468;2023-02-01T11:33:20;7.43;;;3.60;;
10537;SDS011;5317;49.048;8.468;2023-02-01T11:35:54;9.97;;;4.00;;
10537;SDS011;5317;49.048;8.468;2023-02-01T11:38:28;7.90;;;3.47;;
10537;SDS011;5317;49.048;8.468;2023-02-01T11:41:10;13.13;;;4.03;;
10537;SDS011;5317;49.048;8.468;2023-02-01T11:43:50;6.40;;;3.23;;
10537;SDS011;5317;49.048;8.468;2023-02-01T11:46:22;6.93;;;3.73;;
10537;SDS011;5317;49.048;8.468;2023-02-01T11:48:55;10.63;;;3.60;;
10537;SDS011;5317;49.048;8.468;2023-02-01T11:51:39;9.93;;;3.70;;
10537;SDS011;5317;49.048;8.468;2023-02-01T11:54:20;9.00;;;3.60;;
10537;SDS011;5317;49.048;8.468;2023-02-01T11:57:03;7.37;;;3.60;;
10537;SDS011;5317;49.048;8.468;2023-02-01T11:59:45;10.20;;;4.07;;
10537;SDS011;5317;49.048;8.468;2023-02-01T12:02:49;8.40;;;3.40;;
10537;SDS011;5317;49.048;8.468;2023-02-01T12:05:36;7.37;;;3.73;;
10537;SDS011;5317;49.048;8.468;2023-02-01T12:08:17;6.83;;;3.20;;
10537;SDS011;5317;49.048;8.468;2023-02-01T12:11:01;9.17;;;3.53;;
10537;SDS011;5317;49.048;8.468;2023-02-01T12:13:51;7.53;;;3.50;;
10537;SDS011;5317;49.048;8.468;2023-02-01T12:16:27;8.33;;;3.17;;
10537;SDS011;5317;49.048;8.468;2023-02-01T12:19:12;8.93;;;3.77;;
10537;SDS011;5317;49.048;8.468;2023-02-01T12:21:55;7.40;;;2.87;;
10537;SDS011;5317;49.048;8.468;2023-02-01T12:24:38;7.33;;;3.10;;
10537;SDS011;5317;49.048;8.468;2023-02-01T12:27:21;13.23;;;6.90;;
10537;SDS011;5317;49.048;8.468;2023-02-01T12:30:10;11.30;;;6.10;;
10537;SDS011;5317;49.048;8.468;2023-02-01T12:32:59;10.13;;;3.87;;
10537;SDS011;5317;49.048;8.468;2023-02-01T12:38:25;8.33;;;4.00;;
10537;SDS011;5317;49.048;8.468;2023-02-01T12:41:08;6.57;;;3.27;;
10537;SDS011;5317;49.048;8.468;2023-02-01T12:43:51;8.13;;;3.00;;
10537;SDS011;5317;49.048;8.468;2023-02-01T12:46:22;7.90;;;3.53;;
10537;SDS011;5317;49.048;8.468;2023-02-01T12:48:55;6.37;;;3.10;;
10537;SDS011;5317;49.048;8.468;2023-02-01T12:51:26;10.17;;;3.40;;
10537;SDS011;5317;49.048;8.468;2023-02-01T12:53:57;6.87;;;3.23;;
10537;SDS011;5317;49.048;8.468;2023-02-01T12:56:31;10.70;;;3.30;;
10537;SDS011;5317;49.048;8.468;2023-02-01T12:59:08;8.17;;;3.10;;
10537;SDS011;5317;49.048;8.468;2023-02-01T13:01:42;7.63;;;2.83;;
10537;SDS011;5317;49.048;8.468;2023-02-01T13:04:16;11.27;;;4.53;;
10537;SDS011;5317;49.048;8.468;2023-02-01T13:06:48;9.73;;;3.37;;
10537;SDS011;5317;49.048;8.468;2023-02-01T13:09:21;6.13;;;3.30;;
10537;SDS011;5317;49.048;8.468;2023-02-01T13:11:52;6.87;;;3.60;;
10537;SDS011;5317;49.048;8.468;2023-02-01T13:14:27;8.70;;;3.10;;
10537;SDS011;5317;49.048;8.468;2023-02-01T13:17:00;9.40;;;3.27;;
10537;SDS011;5317;49.048;8.468;2023-02-01T13:19:31;6.53;;;2.97;;
10537;SDS011;5317;49.048;8.468;2023-02-01T13:22:08;7.47;;;3.00;;
10537;SDS011;5317;49.048;8.468;2023-02-01T13:24:39;6.93;;;3.37;;
10537;SDS011;5317;49.048;8.468;2023-02-01T13:27:11;8.13;;;3.37;;
10537;SDS011;5317;49.048;8.468;2023-02-01T13:29:41;8.50;;;3.17;;
10537;SDS011;5317;49.048;8.468;2023-02-01T13:32:23;7.83;;;3.27;;
10537;SDS011;5317;49.048;8.468;2023-02-01T13:35:23;6.67;;;3.00;;
10537;SDS011;5317;49.048;8.468;2023-02-01T13:38:06;9.37;;;3.67;;
10537;SDS011;5317;49.048;8.468;2023-02-01T13:41:15;8.27;;;3.10;;
10537;SDS011;5317;49.048;8.468;2023-02-01T13:43:53;11.03;;;3.60;;
10537;SDS011;5317;49.048;8.468;2023-02-01T13:46:24;7.47;;;3.13;;
10537;SDS011;5317;49.048;8.468;2023-02-01T13:48:51;9.10;;;3.30;;
10537;SDS011;5317;49.048;8.468;2023-02-01T13:51:31;9.73;;;2.97;;
10537;SDS011;5317;49.048;8.468;2023-02-01T13:54:01;8.33;;;3.20;;
10537;SDS011;5317;49.048;8.468;2023-02-01T13:56:32;10.67;;;3.40;;
10537;SDS011;5317;49.048;8.468;2023-02-01T14:05:12;10.87;;;3.00;;
10537;SDS011;5317;49.048;8.468;2023-02-01T14:08:21;11.63;;;3.70;;
10537;SDS011;5317;49.048;8.468;2023-02-01T14:10:51;9.83;;;3.80;;
10537;SDS011;5317;49.048;8.468;2023-02-01T14:13:25;8.67;;;3.10;;
10537;SDS011;5317;49.048;8.468;2023-02-01T14:18:49;10.70;;;3.83;;
10537;SDS011;5317;49.048;8.468;2023-02-01T14:21:27;8.47;;;3.20;;
10537;SDS011;5317;49.048;8.468;2023-02-01T14:23:57;9.80;;;3.20;;
10537;SDS011;5317;49.048;8.468;2023-02-01T14:26:28;7.57;;;3.10;;
10537;SDS011;5317;49.048;8.468;2023-02-01T14:29:25;10.03;;;3.33;;
10537;SDS011;5317;49.048;8.468;2023-02-01T14:32:01;7.87;;;2.90;;
10537;SDS011;5317;49.048;8.468;2023-02-01T14:34:36;11.07;;;3.50;;
10537;SDS011;5317;49.048;8.468;2023-02-01T14:37:10;8.70;;;3.20;;
10537;SDS011;5317;49.048;8.468;2023-02-01T14:39:52;9.17;;;3.07;;
10537;SDS011;5317;49.048;8.468;2023-02-01T14:42:24;8.30;;;3.17;;
10537;SDS011;5317;49.048;8.468;2023-02-01T14:44:53;14.77;;;3.27;;
10537;SDS011;5317;49.048;8.468;2023-02-01T14:47:43;8.37;;;3.20;;
10537;SDS011;5317;49.048;8.468;2023-02-01T14:50:22;8.23;;;2.70;;
10537;SDS011;5317;49.048;8.468;2023-02-01T14:55:46;10.97;;;3.83;;
10537;SDS011;5317;49.048;8.468;2023-02-01T14:58:18;9.27;;;2.90;;
10537;SDS011;5317;49.048;8.468;2023-02-01T15:00:54;11.30;;;3.47;;
10537;SDS011;5317;49.048;8.468;2023-02-01T15:03:25;9.53;;;3.97;;
10537;SDS011;5317;49.048;8.468;2023-02-01T15:06:16;12.30;;;3.80;;
10537;SDS011;5317;49.048;8.468;2023-02-01T15:08:49;9.10;;;3.30;;
10537;SDS011;5317;49.048;8.468;2023-02-01T15:11:22;10.43;;;3.37;;
10537;SDS011;5317;49.048;8.468;2023-02-01T15:13:51;12.07;;;4.63;;
10537;SDS011;5317;49.048;8.468;2023-02-01T15:16:20;10.20;;;3.50;;
10537;SDS011;5317;49.048;8.468;2023-02-01T15:18:50;9.60;;;3.27;;
10537;SDS011;5317;49.048;8.468;2023-02-01T15:21:32;8.27;;;3.13;;
10537;SDS011;5317;49.048;8.468;2023-02-01T15:24:11;9.63;;;3.70;;
10537;SDS011;5317;49.048;8.468;2023-02-01T15:26:40;8.70;;;3.10;;
10537;SDS011;5317;49.048;8.468;2023-02-01T15:29:09;8.70;;;3.13;;
10537;SDS011;5317;49.048;8.468;2023-02-01T15:31:38;10.00;;;3.43;;
10537;SDS011;5317;49.048;8.468;2023-02-01T15:34:09;7.87;;;3.17;;
10537;SDS011;5317;49.048;8.468;2023-02-01T15:36:36;8.67;;;3.07;;
10537;SDS011;5317;49.048;8.468;2023-02-01T15:39:17;15.17;;;3.37;;
10537;SDS011;5317;49.048;8.468;2023-02-01T15:41:48;8.27;;;2.87;;
10537;SDS011;5317;49.048;8.468;2023-02-01T15:44:20;8.30;;;3.27;;
10537;SDS011;5317;49.048;8.468;2023-02-01T15:46:55;10.60;;;3.20;;
10537;SDS011;5317;49.048;8.468;2023-02-01T15:49:25;8.17;;;3.00;;
10537;SDS011;5317;49.048;8.468;2023-02-01T15:51:54;9.07;;;3.43;;